createdAt,value
2022-08-27T00:00:43.358Z,25.20
2022-08-27T00:03:16.366Z,25.20
2022-08-27T00:05:48.968Z,25.10
2022-08-27T00:08:20.969Z,25.00
2022-08-27T00:10:52.983Z,25.00
2022-08-27T00:13:24.951Z,24.90
2022-08-27T00:15:57.059Z,24.90
2022-08-27T00:18:29.037Z,24.90
2022-08-27T00:21:01.989Z,25.00
2022-08-27T00:23:35.078Z,25.00
2022-08-27T00:26:07.683Z,25.00
2022-08-27T00:28:40.241Z,24.90
2022-08-27T00:31:12.864Z,24.90
2022-08-27T00:33:45.706Z,25.00
2022-08-27T00:36:17.685Z,24.90
2022-08-27T00:38:49.769Z,24.80
2022-08-27T00:41:26.039Z,24.70
2022-08-27T00:44:00.794Z,24.70
2022-08-27T00:46:52.898Z,24.70
2022-08-27T00:49:29.989Z,24.70
2022-08-27T00:52:16.666Z,24.60
2022-08-27T00:54:52.287Z,24.60
2022-08-27T00:57:24.484Z,24.50
2022-08-27T00:59:56.555Z,24.50
2022-08-27T01:02:30.807Z,24.50
2022-08-27T01:05:08.072Z,24.40
2022-08-27T01:07:42.911Z,24.40
2022-08-27T01:10:19.601Z,24.50
2022-08-27T01:12:54.216Z,24.50
2022-08-27T01:15:28.177Z,24.40
2022-08-27T01:18:03.373Z,24.40
2022-08-27T01:20:56.769Z,24.30
2022-08-27T01:23:40.879Z,24.20
2022-08-27T01:26:16.122Z,24.20
2022-08-27T01:28:49.488Z,24.20
2022-08-27T01:31:21.443Z,24.30
2022-08-27T01:34:03.813Z,24.30
2022-08-27T01:36:35.806Z,24.30
2022-08-27T01:39:08.123Z,24.30
2022-08-27T01:41:40.927Z,24.30
2022-08-27T01:44:13.155Z,24.30
2022-08-27T01:46:45.210Z,24.20
2022-08-27T01:49:17.149Z,24.30
2022-08-27T01:51:49.520Z,24.20
2022-08-27T01:54:21.423Z,24.20
2022-08-27T01:56:53.302Z,24.30
2022-08-27T01:59:25.840Z,24.40
2022-08-27T02:02:14.728Z,24.40
2022-08-27T02:04:46.775Z,24.50
2022-08-27T02:07:18.909Z,24.50
2022-08-27T02:09:51.292Z,24.50
2022-08-27T02:12:23.259Z,24.60
2022-08-27T02:14:55.189Z,24.60
2022-08-27T02:17:27.152Z,24.60
2022-08-27T02:20:00.732Z,24.60
2022-08-27T02:22:32.695Z,24.60
2022-08-27T02:25:07.113Z,24.60
2022-08-27T02:27:43.996Z,24.60
2022-08-27T02:30:20.743Z,24.60
2022-08-27T02:32:53.178Z,24.60
2022-08-27T02:35:25.497Z,24.60
2022-08-27T02:37:57.714Z,24.60
2022-08-27T02:40:30.020Z,24.70
2022-08-27T02:43:01.987Z,24.60
2022-08-27T02:45:35.624Z,24.80
2022-08-27T02:48:08.080Z,24.80
2022-08-27T02:50:40.308Z,24.80
2022-08-27T02:53:12.417Z,24.80
2022-08-27T02:55:44.793Z,24.80
2022-08-27T02:58:16.975Z,24.80
2022-08-27T03:00:48.934Z,24.80
2022-08-27T03:03:20.905Z,24.80
2022-08-27T03:05:52.951Z,24.80
2022-08-27T03:08:27.027Z,24.80
2022-08-27T03:11:00.395Z,24.80
2022-08-27T03:13:35.153Z,24.80
2022-08-27T03:16:08.139Z,24.80
2022-08-27T03:18:40.681Z,24.90
2022-08-27T03:21:21.826Z,24.90
2022-08-27T03:23:54.119Z,24.80
2022-08-27T03:26:26.546Z,24.90
2022-08-27T03:28:59.307Z,25.00
2022-08-27T03:31:31.455Z,25.00
2022-08-27T03:34:07.511Z,25.00
2022-08-27T03:36:39.496Z,24.90
2022-08-27T03:39:11.436Z,24.90
2022-08-27T03:41:54.745Z,24.90
2022-08-27T03:44:27.008Z,24.90
2022-08-27T03:47:00.094Z,24.90
2022-08-27T03:49:32.777Z,24.80
2022-08-27T03:52:05.099Z,24.80
2022-08-27T03:54:40.309Z,24.80
2022-08-27T03:57:15.496Z,24.70
2022-08-27T03:59:47.397Z,24.70
2022-08-27T04:02:19.509Z,24.70
2022-08-27T04:04:51.683Z,24.60
2022-08-27T04:07:23.655Z,24.50
2022-08-27T04:09:55.702Z,24.50
2022-08-27T04:12:27.745Z,24.50
2022-08-27T04:14:59.636Z,24.50
2022-08-27T04:17:32.282Z,24.50
2022-08-27T04:20:33.586Z,24.50
2022-08-27T04:22:58.704Z,24.40
2022-08-27T04:25:30.772Z,24.30
2022-08-27T04:28:02.867Z,24.30
2022-08-27T04:30:39.059Z,24.20
2022-08-27T04:33:13.811Z,24.30
2022-08-27T04:35:45.797Z,24.30
2022-08-27T04:38:18.542Z,24.20
2022-08-27T04:41:08.938Z,24.20
2022-08-27T04:43:41.006Z,24.20
2022-08-27T04:46:13.409Z,24.20
2022-08-27T04:48:45.358Z,24.20
2022-08-27T04:51:17.495Z,24.30
2022-08-27T04:53:51.108Z,24.30
2022-08-27T04:56:23.965Z,24.30
2022-08-27T04:58:55.945Z,24.40
2022-08-27T05:01:29.764Z,24.60
2022-08-27T05:04:01.954Z,24.60
2022-08-27T05:06:35.136Z,24.60
2022-08-27T05:09:07.248Z,24.70
2022-08-27T05:11:39.306Z,24.80
2022-08-27T05:14:14.572Z,25.00
2022-08-27T05:16:47.650Z,25.20
2022-08-27T05:19:19.555Z,25.30
2022-08-27T05:21:53.794Z,25.20
2022-08-27T05:24:25.901Z,25.30
2022-08-27T05:26:57.827Z,25.20
2022-08-27T05:29:31.189Z,25.20
2022-08-27T05:32:03.317Z,25.20
2022-08-27T05:34:35.666Z,25.40
2022-08-27T05:37:07.984Z,25.70
2022-08-27T05:39:39.932Z,26.20
2022-08-27T05:42:12.587Z,26.60
2022-08-27T05:44:44.532Z,26.90
2022-08-27T05:47:16.441Z,27.10
2022-08-27T05:49:48.680Z,27.00
2022-08-27T05:52:21.905Z,27.00
2022-08-27T05:54:53.854Z,26.90
2022-08-27T05:57:25.758Z,26.90
2022-08-27T06:00:16.250Z,26.90
2022-08-27T06:02:48.169Z,27.00
2022-08-27T06:05:20.344Z,27.30
2022-08-27T06:07:52.355Z,27.70
2022-08-27T06:10:24.271Z,28.10
2022-08-27T06:12:57.176Z,28.60
2022-08-27T06:15:29.456Z,28.80
2022-08-27T06:18:01.631Z,29.00
2022-08-27T06:20:33.668Z,29.10
2022-08-27T06:23:05.784Z,29.00
2022-08-27T06:25:40.686Z,28.80
2022-08-27T06:28:13.599Z,28.60
2022-08-27T06:30:45.594Z,28.40
2022-08-27T06:33:17.769Z,28.20
2022-08-27T06:35:49.723Z,28.10
2022-08-27T06:38:21.607Z,28.20
2022-08-27T06:40:54.033Z,28.40
2022-08-27T06:43:26.551Z,28.30
2022-08-27T06:46:03.616Z,28.10
2022-08-27T06:48:38.980Z,27.80
2022-08-27T06:51:17.237Z,27.40
2022-08-27T06:53:49.411Z,27.00
2022-08-27T06:56:22.190Z,26.80
2022-08-27T06:58:56.141Z,26.70
2022-08-27T07:01:31.892Z,26.50
2022-08-27T07:04:07.396Z,26.50
2022-08-27T07:06:40.687Z,26.60
2022-08-27T07:09:12.779Z,26.70
2022-08-27T07:11:44.792Z,26.70
2022-08-27T07:14:16.999Z,26.80
2022-08-27T07:16:50.688Z,26.80
2022-08-27T07:19:24.518Z,26.80
2022-08-27T07:21:56.724Z,26.70
2022-08-27T07:24:28.822Z,26.60
2022-08-27T07:27:00.918Z,26.60
2022-08-27T07:29:32.999Z,26.50
2022-08-27T07:32:05.320Z,26.50
2022-08-27T07:34:37.438Z,26.40
2022-08-27T07:37:09.474Z,26.40
2022-08-27T07:39:41.374Z,26.50
2022-08-27T07:42:32.168Z,26.60
2022-08-27T07:45:04.416Z,26.50
2022-08-27T07:47:38.087Z,26.30
2022-08-27T07:50:10.083Z,26.10
2022-08-27T07:52:44.199Z,26.20
2022-08-27T07:55:16.753Z,26.20
2022-08-27T07:57:48.819Z,26.30
2022-08-27T08:00:21.714Z,26.60
2022-08-27T08:02:53.758Z,26.80
2022-08-27T08:05:26.066Z,27.10
2022-08-27T08:07:58.024Z,27.30
2022-08-27T08:10:34.935Z,27.70
2022-08-27T08:13:08.079Z,28.00
2022-08-27T08:15:40.296Z,27.80
2022-08-27T08:18:12.718Z,27.70
2022-08-27T08:20:57.676Z,27.60
2022-08-27T08:23:30.501Z,27.60
2022-08-27T08:26:03.067Z,27.70
2022-08-27T08:28:35.340Z,27.80
2022-08-27T08:31:07.910Z,27.80
2022-08-27T08:33:39.973Z,27.70
2022-08-27T08:36:13.946Z,27.70
2022-08-27T08:38:46.552Z,27.70
2022-08-27T08:41:44.493Z,27.70
2022-08-27T08:44:37.175Z,27.50
2022-08-27T08:47:37.778Z,27.20
2022-08-27T08:50:15.772Z,26.80
2022-08-27T08:53:13.918Z,26.50
2022-08-27T08:55:55.077Z,26.30
2022-08-27T08:58:50.027Z,26.20
2022-08-27T09:01:23.019Z,26.10
2022-08-27T09:03:58.387Z,26.20
2022-08-27T09:06:47.489Z,26.10
2022-08-27T09:09:23.980Z,25.90
2022-08-27T09:12:01.221Z,25.80
2022-08-27T09:14:52.066Z,25.60
2022-08-27T09:17:25.877Z,25.50
2022-08-27T09:19:57.812Z,25.40
2022-08-27T09:22:48.854Z,25.40
2022-08-27T09:25:25.895Z,25.40
2022-08-27T09:28:02.530Z,25.60
2022-08-27T09:30:43.453Z,25.80
2022-08-27T09:33:15.453Z,25.80
2022-08-27T09:35:47.463Z,25.90
2022-08-27T09:38:28.474Z,25.90
2022-08-27T09:41:06.120Z,25.60
2022-08-27T09:43:39.311Z,25.30
2022-08-27T09:46:21.526Z,25.10
2022-08-27T09:48:56.521Z,24.70
2022-08-27T09:51:30.099Z,24.10
2022-08-27T09:54:04.270Z,23.70
2022-08-27T09:56:47.216Z,23.40
2022-08-27T09:59:37.490Z,23.20
2022-08-27T10:02:19.929Z,23.00
2022-08-27T10:04:58.772Z,22.90
2022-08-27T10:07:43.787Z,22.60
2022-08-27T10:10:45.014Z,22.60
2022-08-27T10:13:35.407Z,22.50
2022-08-27T10:16:25.243Z,22.50
2022-08-27T10:19:18.392Z,22.40
2022-08-27T10:21:56.363Z,22.40
2022-08-27T10:25:04.173Z,22.30
2022-08-27T10:27:54.267Z,22.30
2022-08-27T10:30:40.284Z,22.20
2022-08-27T10:33:27.005Z,22.20
2022-08-27T10:36:27.626Z,22.00
2022-08-27T10:39:19.759Z,21.20
2022-08-27T10:42:17.913Z,20.90
2022-08-27T10:44:52.654Z,20.70
2022-08-27T10:47:42.498Z,20.80
2022-08-27T10:50:40.202Z,20.90
2022-08-27T10:53:44.679Z,21.00
2022-08-27T10:57:22.866Z,21.00
2022-08-27T10:59:58.808Z,21.00
2022-08-27T11:02:37.381Z,20.90
2022-08-27T11:05:18.245Z,20.90
2022-08-27T11:07:57.604Z,20.90
2022-08-27T11:10:33.158Z,20.90
2022-08-27T11:13:14.866Z,20.90
2022-08-27T11:15:52.182Z,20.90
2022-08-27T11:18:39.558Z,20.80
2022-08-27T11:21:35.889Z,20.80
2022-08-27T11:24:34.917Z,20.90
2022-08-27T11:27:08.386Z,21.00
2022-08-27T11:30:00.045Z,20.90
2022-08-27T11:32:58.047Z,20.70
2022-08-27T11:36:16.158Z,20.30
2022-08-27T11:39:29.063Z,20.00
2022-08-27T11:42:24.743Z,20.20
2022-08-27T11:45:05.982Z,20.30
2022-08-27T11:47:38.804Z,20.50
2022-08-27T11:50:19.584Z,20.60
2022-08-27T11:53:12.144Z,20.70
2022-08-27T11:55:44.095Z,20.50
2022-08-27T11:58:19.291Z,20.60
2022-08-27T12:00:55.207Z,20.80
2022-08-27T12:03:35.538Z,20.80
2022-08-27T12:06:21.849Z,20.90
2022-08-27T12:09:05.384Z,20.80
2022-08-27T12:11:49.188Z,20.80
2022-08-27T12:14:41.594Z,20.90
2022-08-27T12:17:40.060Z,21.00
2022-08-27T12:20:25.714Z,20.90
2022-08-27T12:23:42.316Z,21.00
2022-08-27T12:26:26.610Z,21.10
2022-08-27T12:29:20.392Z,21.20
2022-08-27T12:32:01.797Z,21.20
2022-08-27T12:34:45.159Z,21.10
2022-08-27T12:37:28.587Z,21.20
2022-08-27T12:40:10.899Z,21.30
2022-08-27T12:42:42.972Z,21.40
2022-08-27T12:45:24.398Z,21.50
2022-08-27T12:47:57.355Z,21.50
2022-08-27T12:50:31.153Z,21.50
2022-08-27T12:53:29.674Z,21.60
2022-08-27T12:56:40.230Z,21.50
2022-08-27T12:59:45.688Z,21.60
2022-08-27T13:02:36.139Z,21.60
2022-08-27T13:05:10.755Z,21.60
2022-08-27T13:07:46.255Z,21.60
2022-08-27T13:10:19.964Z,21.60
2022-08-27T13:13:12.185Z,21.60
2022-08-27T13:15:57.071Z,21.70
2022-08-27T13:18:30.556Z,21.80
2022-08-27T13:21:11.777Z,21.90
2022-08-27T13:24:03.883Z,21.90
2022-08-27T13:26:39.034Z,21.90
2022-08-27T13:29:11.265Z,22.00
2022-08-27T13:31:43.793Z,22.20
2022-08-27T13:34:20.351Z,22.40
2022-08-27T13:37:04.227Z,22.60
2022-08-27T13:39:38.104Z,22.60
2022-08-27T13:42:10.152Z,22.70
2022-08-27T13:44:44.601Z,22.80
2022-08-27T13:47:23.571Z,22.90
2022-08-27T13:50:14.238Z,23.10
2022-08-27T13:53:05.617Z,23.20
2022-08-27T13:55:48.225Z,23.30
2022-08-27T13:58:28.113Z,23.30
2022-08-27T14:01:15.996Z,23.30
2022-08-27T14:04:07.313Z,23.40
2022-08-27T14:06:45.300Z,23.50
2022-08-27T14:09:17.439Z,23.50
2022-08-27T14:11:49.699Z,23.50
2022-08-27T14:14:21.789Z,23.40
2022-08-27T14:16:59.641Z,23.40
2022-08-27T14:19:36.364Z,23.60
2022-08-27T14:22:09.032Z,23.60
2022-08-27T14:24:41.183Z,23.70
2022-08-27T14:27:15.169Z,23.80
2022-08-27T14:29:49.618Z,23.90
2022-08-27T14:32:21.585Z,23.90
2022-08-27T14:34:53.642Z,24.00
2022-08-27T14:37:25.740Z,24.00
2022-08-27T14:39:58.005Z,24.10
2022-08-27T14:42:30.000Z,24.20
2022-08-27T14:45:01.974Z,24.20
2022-08-27T14:47:36.333Z,24.20
2022-08-27T14:50:12.980Z,24.30
2022-08-27T14:52:44.950Z,24.40
2022-08-27T14:55:17.249Z,24.50
2022-08-27T14:57:49.561Z,24.40
2022-08-27T15:00:21.893Z,24.40
2022-08-27T15:02:56.019Z,24.40
2022-08-27T15:05:28.191Z,24.50
2022-08-27T15:08:00.179Z,24.50
2022-08-27T15:10:32.675Z,24.50
2022-08-27T15:13:04.691Z,24.60
2022-08-27T15:15:37.770Z,24.50
2022-08-27T15:18:10.101Z,24.40
2022-08-27T15:20:42.825Z,24.30
2022-08-27T15:23:15.656Z,24.10
2022-08-27T15:25:47.842Z,24.10
2022-08-27T15:28:19.816Z,24.20
2022-08-27T15:30:51.918Z,24.10
2022-08-27T15:33:24.172Z,24.10
2022-08-27T15:35:57.486Z,24.20
2022-08-27T15:38:31.965Z,24.20
2022-08-27T15:41:04.371Z,24.30
2022-08-27T15:43:37.723Z,24.40
2022-08-27T15:46:10.373Z,24.60
2022-08-27T15:48:42.453Z,24.60
2022-08-27T15:51:15.179Z,24.30
2022-08-27T15:53:47.103Z,24.10
2022-08-27T15:56:21.029Z,24.00
2022-08-27T15:58:53.955Z,23.80
2022-08-27T16:01:31.917Z,23.70
2022-08-27T16:04:06.141Z,23.60
2022-08-27T16:06:38.745Z,23.70
2022-08-27T16:09:10.646Z,23.70
2022-08-27T16:11:46.537Z,23.80
2022-08-27T16:14:18.525Z,24.10
2022-08-27T16:16:50.641Z,24.30
2022-08-27T16:19:22.540Z,24.40
2022-08-27T16:21:54.480Z,24.40
2022-08-27T16:24:26.550Z,24.30
2022-08-27T16:26:58.445Z,24.40
2022-08-27T16:29:30.387Z,24.60
2022-08-27T16:32:02.636Z,24.70
2022-08-27T16:34:34.564Z,24.60
2022-08-27T16:37:06.428Z,24.50
2022-08-27T16:39:40.643Z,24.60
2022-08-27T16:42:12.719Z,24.60
2022-08-27T16:44:44.701Z,24.50
2022-08-27T16:47:17.115Z,24.40
2022-08-27T16:50:07.431Z,24.40
2022-08-27T16:52:39.499Z,24.30
2022-08-27T16:55:11.842Z,24.10
2022-08-27T16:57:43.786Z,24.20
2022-08-27T17:00:15.872Z,24.20
2022-08-27T17:02:48.009Z,24.10
2022-08-27T17:05:35.471Z,24.10
2022-08-27T17:08:11.410Z,24.20
2022-08-27T17:10:48.810Z,24.20
2022-08-27T17:13:28.173Z,24.00
2022-08-27T17:16:01.723Z,24.00
2022-08-27T17:18:34.896Z,24.00
2022-08-27T17:21:06.875Z,24.00
2022-08-27T17:23:43.120Z,24.00
2022-08-27T17:26:16.832Z,24.00
2022-08-27T17:28:49.012Z,24.00
2022-08-27T17:31:32.345Z,24.10
2022-08-27T17:34:07.018Z,24.00
2022-08-27T17:36:39.034Z,23.90
2022-08-27T17:39:11.069Z,23.70
2022-08-27T17:41:46.236Z,23.70
2022-08-27T17:44:28.984Z,23.80
2022-08-27T17:47:07.321Z,23.70
2022-08-27T17:49:39.403Z,23.70
2022-08-27T17:52:15.038Z,23.60
2022-08-27T17:54:54.095Z,23.40
2022-08-27T17:57:27.508Z,23.30
2022-08-27T18:00:04.649Z,23.30
2022-08-27T18:02:40.072Z,23.30
2022-08-27T18:05:13.427Z,23.20
2022-08-27T18:07:46.539Z,23.20
2022-08-27T18:10:23.769Z,23.10
2022-08-27T18:12:56.103Z,23.00
2022-08-27T18:15:31.690Z,22.90
2022-08-27T18:18:04.770Z,22.80
2022-08-27T18:20:40.728Z,22.70
2022-08-27T18:23:14.869Z,22.70
2022-08-27T18:25:47.207Z,22.70
2022-08-27T18:28:19.884Z,22.60
2022-08-27T18:30:51.890Z,22.50
2022-08-27T18:33:23.853Z,22.50
2022-08-27T18:35:55.770Z,22.40
2022-08-27T18:38:27.860Z,22.50
2022-08-27T18:41:00.541Z,22.40
2022-08-27T18:43:34.934Z,22.40
2022-08-27T18:46:07.358Z,22.20
2022-08-27T18:48:41.422Z,22.10
2022-08-27T18:51:16.340Z,22.00
2022-08-27T18:53:49.176Z,21.90
2022-08-27T18:56:21.172Z,21.80
2022-08-27T18:58:53.122Z,21.70
2022-08-27T19:01:26.815Z,21.80
2022-08-27T19:03:58.948Z,21.70
2022-08-27T19:06:31.796Z,21.70
2022-08-27T19:09:04.148Z,21.70
2022-08-27T19:11:36.056Z,21.70
2022-08-27T19:14:08.272Z,21.70
2022-08-27T19:16:50.582Z,21.70
2022-08-27T19:19:24.707Z,21.80
2022-08-27T19:21:56.775Z,21.70
2022-08-27T19:24:32.720Z,21.70
2022-08-27T19:27:09.479Z,21.70
2022-08-27T19:29:41.510Z,21.70
2022-08-27T19:32:13.606Z,21.60
2022-08-27T19:34:45.588Z,21.40
2022-08-27T19:37:21.876Z,21.30
2022-08-27T19:39:54.096Z,21.20
2022-08-27T19:42:26.170Z,21.20
2022-08-27T19:44:58.079Z,21.30
2022-08-27T19:47:30.838Z,21.20
2022-08-27T19:50:02.799Z,21.20
2022-08-27T19:52:34.762Z,21.20
2022-08-27T19:55:14.134Z,21.20
2022-08-27T19:57:47.819Z,21.30
2022-08-27T20:00:24.533Z,21.40
2022-08-27T20:02:59.861Z,21.50
2022-08-27T20:05:31.796Z,21.60
2022-08-27T20:08:04.764Z,21.50
2022-08-27T20:10:37.052Z,21.40
2022-08-27T20:13:09.331Z,21.30
2022-08-27T20:15:41.686Z,21.30
2022-08-27T20:18:14.356Z,21.20
2022-08-27T20:20:46.455Z,21.10
2022-08-27T20:23:18.546Z,21.10
2022-08-27T20:25:52.292Z,21.10
2022-08-27T20:28:38.961Z,21.10
2022-08-27T20:31:12.581Z,21.20
2022-08-27T20:33:44.768Z,21.30
2022-08-27T20:36:17.031Z,21.30
2022-08-27T20:38:48.884Z,21.10
2022-08-27T20:41:21.358Z,21.00
2022-08-27T20:43:53.824Z,21.00
2022-08-27T20:46:28.053Z,20.90
2022-08-27T20:48:59.974Z,20.90
2022-08-27T20:51:31.962Z,20.80
2022-08-27T20:54:24.184Z,20.70
2022-08-27T20:56:56.050Z,20.70
2022-08-27T20:59:46.436Z,20.80
2022-08-27T21:02:24.497Z,20.90
2022-08-27T21:04:57.861Z,20.90
2022-08-27T21:07:29.814Z,20.90
2022-08-27T21:10:01.847Z,20.80
2022-08-27T21:12:34.234Z,20.80
2022-08-27T21:15:07.500Z,20.70
2022-08-27T21:17:39.770Z,20.70
2022-08-27T21:20:13.081Z,20.70
2022-08-27T21:22:45.207Z,20.70
2022-08-27T21:25:17.335Z,20.60
2022-08-27T21:27:49.323Z,20.60
2022-08-27T21:30:22.680Z,20.50
2022-08-27T21:32:57.877Z,20.50
2022-08-27T21:35:31.888Z,20.60
2022-08-27T21:38:03.967Z,20.70
2022-08-27T21:40:36.321Z,20.70
2022-08-27T21:43:08.544Z,20.70
2022-08-27T21:45:41.719Z,20.70
2022-08-27T21:48:13.989Z,20.70
2022-08-27T21:50:46.317Z,20.70
2022-08-27T21:53:19.621Z,20.80
2022-08-27T21:55:56.115Z,20.80
2022-08-27T21:58:28.201Z,20.80
2022-08-27T22:01:02.108Z,20.70
2022-08-27T22:03:35.623Z,20.70
2022-08-27T22:06:12.889Z,20.80
2022-08-27T22:08:45.052Z,20.80
2022-08-27T22:11:23.329Z,20.80
2022-08-27T22:13:57.493Z,20.80
2022-08-27T22:16:29.483Z,20.80
2022-08-27T22:19:01.513Z,20.90
2022-08-27T22:21:33.751Z,20.90
2022-08-27T22:24:06.046Z,20.80
2022-08-27T22:26:38.479Z,20.80
2022-08-27T22:29:10.399Z,20.70
2022-08-27T22:31:42.479Z,20.70
2022-08-27T22:34:15.039Z,20.70
2022-08-27T22:36:49.692Z,20.70
2022-08-27T22:39:21.586Z,20.70
2022-08-27T22:41:56.869Z,20.60
2022-08-27T22:44:29.465Z,20.60
2022-08-27T22:47:01.351Z,20.60
2022-08-27T22:49:33.264Z,20.60
2022-08-27T22:52:05.939Z,20.50
2022-08-27T22:54:40.728Z,20.50
2022-08-27T22:57:12.724Z,20.60
2022-08-27T22:59:44.654Z,20.70
2022-08-27T23:02:16.614Z,20.70
2022-08-27T23:04:56.274Z,20.70
2022-08-27T23:07:28.286Z,20.80
2022-08-27T23:10:00.974Z,20.60
2022-08-27T23:12:39.064Z,20.60
2022-08-27T23:15:11.582Z,20.60
2022-08-27T23:17:43.502Z,20.60
2022-08-27T23:20:16.727Z,20.60
2022-08-27T23:22:50.057Z,20.70
2022-08-27T23:25:43.263Z,20.60
2022-08-27T23:28:15.942Z,20.70
2022-08-27T23:30:48.037Z,20.60
2022-08-27T23:33:20.678Z,20.70
2022-08-27T23:35:52.750Z,20.70
2022-08-27T23:38:24.695Z,20.80
2022-08-27T23:40:57.761Z,20.70
2022-08-27T23:43:30.213Z,20.70
2022-08-27T23:46:02.267Z,20.70
2022-08-27T23:48:34.450Z,20.70
2022-08-27T23:51:07.529Z,20.70
2022-08-27T23:53:39.643Z,20.60
2022-08-27T23:56:11.569Z,20.60
2022-08-27T23:58:43.551Z,20.50
